sensor_id;sensor_type;location;lat;lon;timestamp;temperature;humidity
33139;DHT22;19501;50.948;5.316;2023-07-20T00:01:22;16.80;99.90
33139;DHT22;19501;50.948;5.316;2023-07-20T00:03:47;16.80;99.90
33139;DHT22;19501;50.948;5.316;2023-07-20T00:06:20;16.80;99.90
33139;DHT22;19501;50.948;5.316;2023-07-20T00:08:46;16.70;99.90
33139;DHT22;19501;50.948;5.316;2023-07-20T00:11:12;16.50;99.90
33139;DHT22;19501;50.948;5.316;2023-07-20T00:13:39;16.40;99.90
33139;DHT22;19501;50.948;5.316;2023-07-20T00:16:05;16.50;99.90
33139;DHT22;19501;50.948;5.316;2023-07-20T00:18:30;16.40;99.90
33139;DHT22;19501;50.948;5.316;2023-07-20T00:20:56;16.40;99.90
33139;DHT22;19501;50.948;5.316;2023-07-20T00:23:22;16.50;99.90
33139;DHT22;19501;50.948;5.316;2023-07-20T00:25:48;16.60;99.90
33139;DHT22;19501;50.948;5.316;2023-07-20T00:28:14;16.60;99.90
33139;DHT22;19501;50.948;5.316;2023-07-20T00:30:40;16.60;99.90
33139;DHT22;19501;50.948;5.316;2023-07-20T00:33:09;16.60;99.90
33139;DHT22;19501;50.948;5.316;2023-07-20T00:35:35;16.50;99.90
33139;DHT22;19501;50.948;5.316;2023-07-20T00:38:01;16.30;99.90
33139;DHT22;19501;50.948;5.316;2023-07-20T00:40:27;16.20;99.90
33139;DHT22;19501;50.948;5.316;2023-07-20T00:42:53;16.20;99.90
33139;DHT22;19501;50.948;5.316;2023-07-20T00:45:19;16.30;99.90
33139;DHT22;19501;50.948;5.316;2023-07-20T00:47:44;16.40;99.90
33139;DHT22;19501;50.948;5.316;2023-07-20T00:50:10;16.50;99.90
33139;DHT22;19501;50.948;5.316;2023-07-20T00:52:37;16.30;99.90
33139;DHT22;19501;50.948;5.316;2023-07-20T00:55:06;16.40;99.90
33139;DHT22;19501;50.948;5.316;2023-07-20T00:57:31;16.30;99.90
33139;DHT22;19501;50.948;5.316;2023-07-20T00:59:58;16.30;99.90
33139;DHT22;19501;50.948;5.316;2023-07-20T01:02:23;16.30;99.90
33139;DHT22;19501;50.948;5.316;2023-07-20T01:04:49;16.20;99.90
33139;DHT22;19501;50.948;5.316;2023-07-20T01:07:26;16.20;99.90
33139;DHT22;19501;50.948;5.316;2023-07-20T01:10:03;16.30;99.90
33139;DHT22;19501;50.948;5.316;2023-07-20T01:12:52;16.30;99.90
33139;DHT22;19501;50.948;5.316;2023-07-20T01:15:18;16.30;99.90
33139;DHT22;19501;50.948;5.316;2023-07-20T01:17:46;16.50;99.90
33139;DHT22;19501;50.948;5.316;2023-07-20T01:20:16;16.50;99.90
33139;DHT22;19501;50.948;5.316;2023-07-20T01:31:24;16.60;99.90
33139;DHT22;19501;50.948;5.316;2023-07-20T01:33:55;16.50;99.90
33139;DHT22;19501;50.948;5.316;2023-07-20T01:36:23;16.30;99.90
33139;DHT22;19501;50.948;5.316;2023-07-20T01:38:51;16.30;99.90
33139;DHT22;19501;50.948;5.316;2023-07-20T01:41:17;16.40;99.90
33139;DHT22;19501;50.948;5.316;2023-07-20T01:43:43;16.30;99.90
33139;DHT22;19501;50.948;5.316;2023-07-20T01:46:09;16.30;99.90
33139;DHT22;19501;50.948;5.316;2023-07-20T01:48:34;16.30;99.90
33139;DHT22;19501;50.948;5.316;2023-07-20T01:51:00;16.20;99.90
33139;DHT22;19501;50.948;5.316;2023-07-20T01:53:28;16.30;99.90
33139;DHT22;19501;50.948;5.316;2023-07-20T01:55:54;16.40;99.90
33139;DHT22;19501;50.948;5.316;2023-07-20T01:58:20;16.30;99.90
33139;DHT22;19501;50.948;5.316;2023-07-20T02:00:46;16.20;99.90
33139;DHT22;19501;50.948;5.316;2023-07-20T02:03:11;16.20;99.90
33139;DHT22;19501;50.948;5.316;2023-07-20T02:05:37;16.20;99.90
33139;DHT22;19501;50.948;5.316;2023-07-20T02:08:05;16.10;99.90
33139;DHT22;19501;50.948;5.316;2023-07-20T02:10:31;16.00;99.90
33139;DHT22;19501;50.948;5.316;2023-07-20T02:12:59;16.00;99.90
33139;DHT22;19501;50.948;5.316;2023-07-20T02:15:27;15.90;99.90
33139;DHT22;19501;50.948;5.316;2023-07-20T02:17:54;15.90;99.90
33139;DHT22;19501;50.948;5.316;2023-07-20T02:20:19;15.80;99.90
33139;DHT22;19501;50.948;5.316;2023-07-20T02:22:46;15.80;99.90
33139;DHT22;19501;50.948;5.316;2023-07-20T02:25:13;15.90;99.90
33139;DHT22;19501;50.948;5.316;2023-07-20T02:27:39;15.90;99.90
33139;DHT22;19501;50.948;5.316;2023-07-20T02:30:05;15.90;99.90
33139;DHT22;19501;50.948;5.316;2023-07-20T02:32:31;16.00;99.90
33139;DHT22;19501;50.948;5.316;2023-07-20T02:34:57;16.00;99.90
33139;DHT22;19501;50.948;5.316;2023-07-20T02:37:26;15.90;99.90
33139;DHT22;19501;50.948;5.316;2023-07-20T02:39:51;15.90;99.90
33139;DHT22;19501;50.948;5.316;2023-07-20T02:42:17;15.80;99.90
33139;DHT22;19501;50.948;5.316;2023-07-20T02:44:43;15.80;99.90
33139;DHT22;19501;50.948;5.316;2023-07-20T02:47:08;15.80;99.90
33139;DHT22;19501;50.948;5.316;2023-07-20T02:49:34;15.80;99.90
33139;DHT22;19501;50.948;5.316;2023-07-20T02:52:00;15.70;99.90
33139;DHT22;19501;50.948;5.316;2023-07-20T02:54:26;15.70;99.90
33139;DHT22;19501;50.948;5.316;2023-07-20T02:56:51;15.70;99.90
33139;DHT22;19501;50.948;5.316;2023-07-20T02:59:17;15.70;99.90
33139;DHT22;19501;50.948;5.316;2023-07-20T03:01:43;15.70;99.90
33139;DHT22;19501;50.948;5.316;2023-07-20T03:04:12;15.60;99.90
33139;DHT22;19501;50.948;5.316;2023-07-20T03:06:37;15.60;99.90
33139;DHT22;19501;50.948;5.316;2023-07-20T03:09:03;15.60;99.90
33139;DHT22;19501;50.948;5.316;2023-07-20T03:11:29;15.70;99.90
33139;DHT22;19501;50.948;5.316;2023-07-20T03:13:55;15.60;99.90
33139;DHT22;19501;50.948;5.316;2023-07-20T03:16:23;15.60;99.90
33139;DHT22;19501;50.948;5.316;2023-07-20T03:18:49;15.60;99.90
33139;DHT22;19501;50.948;5.316;2023-07-20T03:21:14;15.60;99.90
33139;DHT22;19501;50.948;5.316;2023-07-20T03:23:40;15.60;99.90
33139;DHT22;19501;50.948;5.316;2023-07-20T03:26:06;15.60;99.90
33139;DHT22;19501;50.948;5.316;2023-07-20T03:28:38;15.70;99.90
33139;DHT22;19501;50.948;5.316;2023-07-20T03:31:05;15.70;99.90
33139;DHT22;19501;50.948;5.316;2023-07-20T03:33:31;15.70;99.90
33139;DHT22;19501;50.948;5.316;2023-07-20T03:35:57;15.80;99.90
33139;DHT22;19501;50.948;5.316;2023-07-20T03:38:25;15.70;99.90
33139;DHT22;19501;50.948;5.316;2023-07-20T03:40:58;15.70;99.90
33139;DHT22;19501;50.948;5.316;2023-07-20T03:43:25;16.10;99.90
33139;DHT22;19501;50.948;5.316;2023-07-20T03:45:51;16.00;99.90
33139;DHT22;19501;50.948;5.316;2023-07-20T03:48:22;16.00;99.90
33139;DHT22;19501;50.948;5.316;2023-07-20T03:50:49;15.90;99.90
33139;DHT22;19501;50.948;5.316;2023-07-20T03:53:15;15.90;99.90
33139;DHT22;19501;50.948;5.316;2023-07-20T03:55:45;15.90;99.90
33139;DHT22;19501;50.948;5.316;2023-07-20T03:58:12;15.90;99.90
33139;DHT22;19501;50.948;5.316;2023-07-20T04:00:38;15.90;99.90
33139;DHT22;19501;50.948;5.316;2023-07-20T04:03:04;16.10;99.90
33139;DHT22;19501;50.948;5.316;2023-07-20T04:05:29;16.10;99.90
33139;DHT22;19501;50.948;5.316;2023-07-20T04:07:56;16.10;99.90
33139;DHT22;19501;50.948;5.316;2023-07-20T04:10:22;16.10;99.90
33139;DHT22;19501;50.948;5.316;2023-07-20T04:12:50;16.20;99.90
33139;DHT22;19501;50.948;5.316;2023-07-20T04:15:16;16.00;99.90
33139;DHT22;19501;50.948;5.316;2023-07-20T04:17:41;15.90;99.90
33139;DHT22;19501;50.948;5.316;2023-07-20T04:20:07;16.00;99.90
33139;DHT22;19501;50.948;5.316;2023-07-20T04:22:33;16.00;99.90
33139;DHT22;19501;50.948;5.316;2023-07-20T04:24:59;16.00;99.90
33139;DHT22;19501;50.948;5.316;2023-07-20T04:27:25;15.90;99.90
33139;DHT22;19501;50.948;5.316;2023-07-20T04:29:51;15.90;99.90
33139;DHT22;19501;50.948;5.316;2023-07-20T04:32:17;15.90;99.90
33139;DHT22;19501;50.948;5.316;2023-07-20T04:34:42;16.00;99.90
33139;DHT22;19501;50.948;5.316;2023-07-20T04:37:08;15.80;99.90
33139;DHT22;19501;50.948;5.316;2023-07-20T04:39:34;15.70;99.90
33139;DHT22;19501;50.948;5.316;2023-07-20T04:41:59;15.80;99.90
33139;DHT22;19501;50.948;5.316;2023-07-20T04:44:25;15.60;99.90
33139;DHT22;19501;50.948;5.316;2023-07-20T04:46:51;15.90;99.90
33139;DHT22;19501;50.948;5.316;2023-07-20T04:49:16;15.90;99.90
33139;DHT22;19501;50.948;5.316;2023-07-20T04:51:42;15.70;99.90
33139;DHT22;19501;50.948;5.316;2023-07-20T04:54:08;15.70;99.90
33139;DHT22;19501;50.948;5.316;2023-07-20T04:56:33;15.70;99.90
33139;DHT22;19501;50.948;5.316;2023-07-20T04:58:59;15.60;99.90
33139;DHT22;19501;50.948;5.316;2023-07-20T05:01:25;15.70;99.90
33139;DHT22;19501;50.948;5.316;2023-07-20T05:03:52;16.00;99.90
33139;DHT22;19501;50.948;5.316;2023-07-20T05:06:18;15.90;99.90
33139;DHT22;19501;50.948;5.316;2023-07-20T05:08:43;16.00;99.90
33139;DHT22;19501;50.948;5.316;2023-07-20T05:11:10;16.10;99.90
33139;DHT22;19501;50.948;5.316;2023-07-20T05:13:36;16.10;99.90
33139;DHT22;19501;50.948;5.316;2023-07-20T05:16:02;16.00;99.90
33139;DHT22;19501;50.948;5.316;2023-07-20T05:18:27;16.00;99.90
33139;DHT22;19501;50.948;5.316;2023-07-20T05:20:53;16.20;99.90
33139;DHT22;19501;50.948;5.316;2023-07-20T05:23:21;16.30;99.90
33139;DHT22;19501;50.948;5.316;2023-07-20T05:25:47;16.30;99.90
33139;DHT22;19501;50.948;5.316;2023-07-20T05:28:13;16.40;99.90
33139;DHT22;19501;50.948;5.316;2023-07-20T05:30:40;16.50;99.90
33139;DHT22;19501;50.948;5.316;2023-07-20T05:33:05;16.70;99.90
33139;DHT22;19501;50.948;5.316;2023-07-20T05:35:31;16.90;99.90
33139;DHT22;19501;50.948;5.316;2023-07-20T05:37:57;17.00;99.90
33139;DHT22;19501;50.948;5.316;2023-07-20T05:40:22;17.00;99.90
33139;DHT22;19501;50.948;5.316;2023-07-20T05:42:48;17.10;99.90
33139;DHT22;19501;50.948;5.316;2023-07-20T05:45:17;17.20;99.90
33139;DHT22;19501;50.948;5.316;2023-07-20T05:47:43;17.10;99.90
33139;DHT22;19501;50.948;5.316;2023-07-20T05:50:11;17.00;99.90
33139;DHT22;19501;50.948;5.316;2023-07-20T05:52:37;17.20;99.90
33139;DHT22;19501;50.948;5.316;2023-07-20T05:55:04;17.20;99.90
33139;DHT22;19501;50.948;5.316;2023-07-20T05:57:30;16.80;99.90
33139;DHT22;19501;50.948;5.316;2023-07-20T05:59:56;16.90;99.90
33139;DHT22;19501;50.948;5.316;2023-07-20T06:02:21;17.10;99.90
33139;DHT22;19501;50.948;5.316;2023-07-20T06:04:47;17.10;99.90
33139;DHT22;19501;50.948;5.316;2023-07-20T06:07:13;17.00;99.90
33139;DHT22;19501;50.948;5.316;2023-07-20T06:09:39;16.80;99.90
33139;DHT22;19501;50.948;5.316;2023-07-20T06:12:05;16.80;99.90
33139;DHT22;19501;50.948;5.316;2023-07-20T06:14:30;16.90;99.90
33139;DHT22;19501;50.948;5.316;2023-07-20T06:16:56;17.30;99.90
33139;DHT22;19501;50.948;5.316;2023-07-20T06:19:24;17.30;99.90
33139;DHT22;19501;50.948;5.316;2023-07-20T06:21:50;16.90;99.90
33139;DHT22;19501;50.948;5.316;2023-07-20T06:24:16;16.90;99.90
33139;DHT22;19501;50.948;5.316;2023-07-20T06:26:42;17.00;99.90
33139;DHT22;19501;50.948;5.316;2023-07-20T06:29:08;17.10;99.90
33139;DHT22;19501;50.948;5.316;2023-07-20T06:31:37;17.10;99.90
33139;DHT22;19501;50.948;5.316;2023-07-20T06:34:03;17.30;99.90
33139;DHT22;19501;50.948;5.316;2023-07-20T06:36:29;17.50;99.90
33139;DHT22;19501;50.948;5.316;2023-07-20T06:38:55;17.50;99.90
33139;DHT22;19501;50.948;5.316;2023-07-20T06:41:21;17.60;99.90
33139;DHT22;19501;50.948;5.316;2023-07-20T06:43:47;17.70;99.90
33139;DHT22;19501;50.948;5.316;2023-07-20T06:46:13;17.60;99.90
33139;DHT22;19501;50.948;5.316;2023-07-20T06:48:39;17.70;99.90
33139;DHT22;19501;50.948;5.316;2023-07-20T06:51:05;17.80;99.90
33139;DHT22;19501;50.948;5.316;2023-07-20T06:53:31;18.00;99.90
33139;DHT22;19501;50.948;5.316;2023-07-20T06:55:57;18.00;99.90
33139;DHT22;19501;50.948;5.316;2023-07-20T06:58:26;18.00;99.90
33139;DHT22;19501;50.948;5.316;2023-07-20T07:00:53;18.10;99.90
33139;DHT22;19501;50.948;5.316;2023-07-20T07:03:19;18.20;99.90
33139;DHT22;19501;50.948;5.316;2023-07-20T07:05:45;18.00;99.90
33139;DHT22;19501;50.948;5.316;2023-07-20T07:08:11;18.00;99.90
33139;DHT22;19501;50.948;5.316;2023-07-20T07:10:38;18.20;99.90
33139;DHT22;19501;50.948;5.316;2023-07-20T07:13:04;18.10;99.90
33139;DHT22;19501;50.948;5.316;2023-07-20T07:15:32;18.40;99.90
33139;DHT22;19501;50.948;5.316;2023-07-20T07:17:57;18.20;99.90
33139;DHT22;19501;50.948;5.316;2023-07-20T07:20:24;18.30;99.90
33139;DHT22;19501;50.948;5.316;2023-07-20T07:22:50;18.40;99.90
33139;DHT22;19501;50.948;5.316;2023-07-20T07:25:17;18.50;99.90
33139;DHT22;19501;50.948;5.316;2023-07-20T07:27:43;18.70;99.90
33139;DHT22;19501;50.948;5.316;2023-07-20T07:30:09;18.70;99.90
33139;DHT22;19501;50.948;5.316;2023-07-20T07:32:35;18.80;99.90
33139;DHT22;19501;50.948;5.316;2023-07-20T07:35:00;18.80;99.90
33139;DHT22;19501;50.948;5.316;2023-07-20T07:37:26;19.00;99.90
33139;DHT22;19501;50.948;5.316;2023-07-20T07:39:52;18.60;99.90
33139;DHT22;19501;50.948;5.316;2023-07-20T07:42:17;18.50;99.90
33139;DHT22;19501;50.948;5.316;2023-07-20T07:44:44;18.80;99.90
33139;DHT22;19501;50.948;5.316;2023-07-20T07:47:10;18.60;99.90
33139;DHT22;19501;50.948;5.316;2023-07-20T07:49:38;18.40;99.90
33139;DHT22;19501;50.948;5.316;2023-07-20T07:52:04;18.60;99.90
33139;DHT22;19501;50.948;5.316;2023-07-20T07:54:30;18.60;99.90
33139;DHT22;19501;50.948;5.316;2023-07-20T07:56:56;18.90;99.90
33139;DHT22;19501;50.948;5.316;2023-07-20T07:59:21;19.30;99.90
33139;DHT22;19501;50.948;5.316;2023-07-20T08:01:48;19.60;99.90
33139;DHT22;19501;50.948;5.316;2023-07-20T08:04:13;19.70;99.90
33139;DHT22;19501;50.948;5.316;2023-07-20T08:06:39;19.30;99.90
33139;DHT22;19501;50.948;5.316;2023-07-20T08:09:05;19.20;99.90
33139;DHT22;19501;50.948;5.316;2023-07-20T08:11:31;19.30;99.90
33139;DHT22;19501;50.948;5.316;2023-07-20T08:14:00;19.40;99.90
33139;DHT22;19501;50.948;5.316;2023-07-20T08:16:26;19.50;99.90
33139;DHT22;19501;50.948;5.316;2023-07-20T08:18:51;19.50;99.90
33139;DHT22;19501;50.948;5.316;2023-07-20T08:21:17;19.30;99.90
33139;DHT22;19501;50.948;5.316;2023-07-20T08:23:43;19.50;99.90
33139;DHT22;19501;50.948;5.316;2023-07-20T08:26:11;19.20;99.90
33139;DHT22;19501;50.948;5.316;2023-07-20T08:28:36;19.50;99.90
33139;DHT22;19501;50.948;5.316;2023-07-20T08:31:03;19.80;99.90
33139;DHT22;19501;50.948;5.316;2023-07-20T08:33:30;19.60;99.90
33139;DHT22;19501;50.948;5.316;2023-07-20T08:36:00;19.30;99.90
33139;DHT22;19501;50.948;5.316;2023-07-20T08:38:26;19.10;99.90
33139;DHT22;19501;50.948;5.316;2023-07-20T08:40:52;19.20;99.90
33139;DHT22;19501;50.948;5.316;2023-07-20T08:43:20;19.20;99.90
33139;DHT22;19501;50.948;5.316;2023-07-20T08:45:50;19.50;99.90
33139;DHT22;19501;50.948;5.316;2023-07-20T08:48:17;19.80;99.90
33139;DHT22;19501;50.948;5.316;2023-07-20T08:50:44;19.90;99.90
33139;DHT22;19501;50.948;5.316;2023-07-20T08:53:12;20.00;99.90
33139;DHT22;19501;50.948;5.316;2023-07-20T08:55:40;20.30;99.90
33139;DHT22;19501;50.948;5.316;2023-07-20T08:58:12;20.40;99.90
33139;DHT22;19501;50.948;5.316;2023-07-20T09:00:38;20.40;99.90
33139;DHT22;19501;50.948;5.316;2023-07-20T09:03:04;20.00;99.90
33139;DHT22;19501;50.948;5.316;2023-07-20T09:05:30;20.30;99.90
33139;DHT22;19501;50.948;5.316;2023-07-20T09:07:56;20.10;99.90
33139;DHT22;19501;50.948;5.316;2023-07-20T09:10:23;19.70;99.90
33139;DHT22;19501;50.948;5.316;2023-07-20T09:12:49;19.80;99.90
33139;DHT22;19501;50.948;5.316;2023-07-20T09:15:15;19.90;99.90
33139;DHT22;19501;50.948;5.316;2023-07-20T09:17:49;20.40;99.90
33139;DHT22;19501;50.948;5.316;2023-07-20T09:20:16;20.90;99.90
33139;DHT22;19501;50.948;5.316;2023-07-20T09:22:43;20.80;99.90
33139;DHT22;19501;50.948;5.316;2023-07-20T09:25:18;20.60;99.90
33139;DHT22;19501;50.948;5.316;2023-07-20T09:27:46;20.60;99.90
33139;DHT22;19501;50.948;5.316;2023-07-20T09:30:14;21.10;99.90
33139;DHT22;19501;50.948;5.316;2023-07-20T09:32:44;21.30;99.90
33139;DHT22;19501;50.948;5.316;2023-07-20T09:35:21;21.30;99.90
33139;DHT22;19501;50.948;5.316;2023-07-20T09:37:58;21.40;99.90
33139;DHT22;19501;50.948;5.316;2023-07-20T09:40:25;21.40;99.90
33139;DHT22;19501;50.948;5.316;2023-07-20T09:42:54;21.30;99.90
33139;DHT22;19501;50.948;5.316;2023-07-20T09:45:30;21.00;99.90
33139;DHT22;19501;50.948;5.316;2023-07-20T09:48:04;21.40;99.90
33139;DHT22;19501;50.948;5.316;2023-07-20T09:50:30;21.40;99.90
33139;DHT22;19501;50.948;5.316;2023-07-20T09:52:56;21.00;99.90
33139;DHT22;19501;50.948;5.316;2023-07-20T09:55:23;20.90;99.90
33139;DHT22;19501;50.948;5.316;2023-07-20T09:57:50;20.90;99.90
33139;DHT22;19501;50.948;5.316;2023-07-20T10:00:18;20.70;99.90
33139;DHT22;19501;50.948;5.316;2023-07-20T10:02:46;20.60;99.90
33139;DHT22;19501;50.948;5.316;2023-07-20T10:05:15;20.70;99.90
33139;DHT22;19501;50.948;5.316;2023-07-20T10:07:47;21.20;99.90
33139;DHT22;19501;50.948;5.316;2023-07-20T10:10:20;21.60;99.90
33139;DHT22;19501;50.948;5.316;2023-07-20T10:12:48;21.40;99.90
33139;DHT22;19501;50.948;5.316;2023-07-20T10:20:36;21.20;99.90
33139;DHT22;19501;50.948;5.316;2023-07-20T10:23:04;21.40;99.90
33139;DHT22;19501;50.948;5.316;2023-07-20T10:25:31;21.40;99.90
33139;DHT22;19501;50.948;5.316;2023-07-20T10:27:58;21.60;99.90
33139;DHT22;19501;50.948;5.316;2023-07-20T10:30:25;22.00;99.90
33139;DHT22;19501;50.948;5.316;2023-07-20T10:32:52;22.60;99.90
33139;DHT22;19501;50.948;5.316;2023-07-20T10:35:18;23.00;99.90
33139;DHT22;19501;50.948;5.316;2023-07-20T10:37:53;23.00;99.90
33139;DHT22;19501;50.948;5.316;2023-07-20T10:40:37;22.70;99.90
33139;DHT22;19501;50.948;5.316;2023-07-20T10:43:05;22.90;99.90
33139;DHT22;19501;50.948;5.316;2023-07-20T10:45:53;23.10;99.90
33139;DHT22;19501;50.948;5.316;2023-07-20T10:48:23;23.10;99.90
33139;DHT22;19501;50.948;5.316;2023-07-20T10:51:08;23.40;99.90
33139;DHT22;19501;50.948;5.316;2023-07-20T10:53:34;23.70;99.90
33139;DHT22;19501;50.948;5.316;2023-07-20T10:56:27;24.00;99.90
33139;DHT22;19501;50.948;5.316;2023-07-20T10:59:00;24.10;99.80
33139;DHT22;19501;50.948;5.316;2023-07-20T11:01:30;24.30;99.90
33139;DHT22;19501;50.948;5.316;2023-07-20T11:03:58;23.80;99.90
33139;DHT22;19501;50.948;5.316;2023-07-20T11:11:24;25.40;98.40
33139;DHT22;19501;50.948;5.316;2023-07-20T11:14:30;24.70;97.10
33139;DHT22;19501;50.948;5.316;2023-07-20T11:17:14;24.60;97.40
33139;DHT22;19501;50.948;5.316;2023-07-20T11:19:40;24.90;96.50
33139;DHT22;19501;50.948;5.316;2023-07-20T11:22:07;25.20;94.80
33139;DHT22;19501;50.948;5.316;2023-07-20T11:24:39;25.10;95.20
33139;DHT22;19501;50.948;5.316;2023-07-20T11:27:05;25.40;94.50
33139;DHT22;19501;50.948;5.316;2023-07-20T11:29:31;25.30;95.00
33139;DHT22;19501;50.948;5.316;2023-07-20T11:31:57;25.00;93.90
33139;DHT22;19501;50.948;5.316;2023-07-20T11:34:24;25.40;93.80
33139;DHT22;19501;50.948;5.316;2023-07-20T11:36:51;26.60;94.60
33139;DHT22;19501;50.948;5.316;2023-07-20T11:39:18;27.00;92.30
33139;DHT22;19501;50.948;5.316;2023-07-20T11:41:58;26.80;92.10
33139;DHT22;19501;50.948;5.316;2023-07-20T11:44:28;26.00;92.30
33139;DHT22;19501;50.948;5.316;2023-07-20T11:47:07;26.10;92.30
33139;DHT22;19501;50.948;5.316;2023-07-20T11:49:41;26.20;92.40
33139;DHT22;19501;50.948;5.316;2023-07-20T11:52:08;26.70;93.10
33139;DHT22;19501;50.948;5.316;2023-07-20T11:54:35;26.70;90.60
33139;DHT22;19501;50.948;5.316;2023-07-20T11:57:02;28.00;90.70
33139;DHT22;19501;50.948;5.316;2023-07-20T11:59:27;27.80;89.20
33139;DHT22;19501;50.948;5.316;2023-07-20T12:01:53;27.80;89.10
33139;DHT22;19501;50.948;5.316;2023-07-20T12:04:19;28.10;87.40
33139;DHT22;19501;50.948;5.316;2023-07-20T12:06:45;27.30;88.80
33139;DHT22;19501;50.948;5.316;2023-07-20T12:09:16;27.80;89.70
33139;DHT22;19501;50.948;5.316;2023-07-20T12:11:44;28.00;86.60
33139;DHT22;19501;50.948;5.316;2023-07-20T12:14:12;28.10;87.50
33139;DHT22;19501;50.948;5.316;2023-07-20T12:16:38;28.40;87.90
33139;DHT22;19501;50.948;5.316;2023-07-20T12:19:09;28.40;84.40
33139;DHT22;19501;50.948;5.316;2023-07-20T12:21:36;26.70;89.00
33139;DHT22;19501;50.948;5.316;2023-07-20T12:24:03;26.60;88.70
33139;DHT22;19501;50.948;5.316;2023-07-20T12:26:30;26.30;88.60
33139;DHT22;19501;50.948;5.316;2023-07-20T12:28:56;26.10;89.00
33139;DHT22;19501;50.948;5.316;2023-07-20T12:31:25;25.90;89.40
33139;DHT22;19501;50.948;5.316;2023-07-20T12:33:52;27.00;87.20
33139;DHT22;19501;50.948;5.316;2023-07-20T12:36:18;27.70;84.50
33139;DHT22;19501;50.948;5.316;2023-07-20T12:38:44;27.70;84.40
33139;DHT22;19501;50.948;5.316;2023-07-20T12:41:11;27.30;86.10
33139;DHT22;19501;50.948;5.316;2023-07-20T12:43:38;27.50;86.60
33139;DHT22;19501;50.948;5.316;2023-07-20T12:46:05;26.90;85.30
33139;DHT22;19501;50.948;5.316;2023-07-20T12:48:31;27.20;85.10
33139;DHT22;19501;50.948;5.316;2023-07-20T12:50:57;26.60;84.20
33139;DHT22;19501;50.948;5.316;2023-07-20T12:53:22;27.20;84.30
33139;DHT22;19501;50.948;5.316;2023-07-20T12:55:48;27.30;86.40
33139;DHT22;19501;50.948;5.316;2023-07-20T12:58:14;27.20;86.20
33139;DHT22;19501;50.948;5.316;2023-07-20T13:00:40;26.40;85.20
33139;DHT22;19501;50.948;5.316;2023-07-20T13:03:06;25.70;85.80
33139;DHT22;19501;50.948;5.316;2023-07-20T13:05:34;25.40;84.40
33139;DHT22;19501;50.948;5.316;2023-07-20T13:08:00;25.30;86.90
33139;DHT22;19501;50.948;5.316;2023-07-20T13:10:26;25.30;86.90
33139;DHT22;19501;50.948;5.316;2023-07-20T13:12:51;25.20;86.40
33139;DHT22;19501;50.948;5.316;2023-07-20T13:15:17;24.90;88.80
33139;DHT22;19501;50.948;5.316;2023-07-20T13:17:44;24.70;88.90
33139;DHT22;19501;50.948;5.316;2023-07-20T13:20:10;24.80;90.40
33139;DHT22;19501;50.948;5.316;2023-07-20T13:22:42;24.70;88.20
33139;DHT22;19501;50.948;5.316;2023-07-20T13:25:08;25.10;85.40
33139;DHT22;19501;50.948;5.316;2023-07-20T13:27:35;24.80;87.10
33139;DHT22;19501;50.948;5.316;2023-07-20T13:30:02;24.70;88.20
33139;DHT22;19501;50.948;5.316;2023-07-20T13:32:32;24.80;87.40
33139;DHT22;19501;50.948;5.316;2023-07-20T13:34:57;25.40;85.80
33139;DHT22;19501;50.948;5.316;2023-07-20T13:37:25;26.30;84.90
33139;DHT22;19501;50.948;5.316;2023-07-20T13:39:52;26.50;83.30
33139;DHT22;19501;50.948;5.316;2023-07-20T13:42:18;26.60;84.30
33139;DHT22;19501;50.948;5.316;2023-07-20T13:44:43;26.70;82.90
33139;DHT22;19501;50.948;5.316;2023-07-20T13:47:09;27.30;82.20
33139;DHT22;19501;50.948;5.316;2023-07-20T13:49:35;27.30;80.70
33139;DHT22;19501;50.948;5.316;2023-07-20T13:52:00;27.90;80.10
33139;DHT22;19501;50.948;5.316;2023-07-20T13:54:26;27.70;75.20
33139;DHT22;19501;50.948;5.316;2023-07-20T13:56:54;27.60;75.60
33139;DHT22;19501;50.948;5.316;2023-07-20T13:59:20;27.20;74.60
33139;DHT22;19501;50.948;5.316;2023-07-20T14:01:45;27.90;75.50
33139;DHT22;19501;50.948;5.316;2023-07-20T14:04:11;28.20;77.80
33139;DHT22;19501;50.948;5.316;2023-07-20T14:06:37;27.80;78.40
33139;DHT22;19501;50.948;5.316;2023-07-20T14:09:03;28.00;79.60
33139;DHT22;19501;50.948;5.316;2023-07-20T14:11:31;28.20;76.00
33139;DHT22;19501;50.948;5.316;2023-07-20T14:13:58;27.80;76.20
33139;DHT22;19501;50.948;5.316;2023-07-20T14:16:25;27.50;77.40
33139;DHT22;19501;50.948;5.316;2023-07-20T14:18:50;28.30;76.00
33139;DHT22;19501;50.948;5.316;2023-07-20T14:21:17;27.70;73.20
33139;DHT22;19501;50.948;5.316;2023-07-20T14:23:46;27.90;74.10
33139;DHT22;19501;50.948;5.316;2023-07-20T14:26:12;28.70;71.40
33139;DHT22;19501;50.948;5.316;2023-07-20T14:28:38;27.80;70.50
33139;DHT22;19501;50.948;5.316;2023-07-20T14:31:03;27.40;71.40
33139;DHT22;19501;50.948;5.316;2023-07-20T14:33:30;27.40;74.80
33139;DHT22;19501;50.948;5.316;2023-07-20T14:35:56;28.00;72.70
33139;DHT22;19501;50.948;5.316;2023-07-20T14:38:21;28.70;74.30
33139;DHT22;19501;50.948;5.316;2023-07-20T14:40:47;29.10;71.60
33139;DHT22;19501;50.948;5.316;2023-07-20T14:43:13;28.60;71.70
33139;DHT22;19501;50.948;5.316;2023-07-20T14:45:40;28.40;71.10
33139;DHT22;19501;50.948;5.316;2023-07-20T14:48:06;28.30;71.60
33139;DHT22;19501;50.948;5.316;2023-07-20T14:50:33;28.10;71.70
33139;DHT22;19501;50.948;5.316;2023-07-20T14:52:58;27.50;72.50
33139;DHT22;19501;50.948;5.316;2023-07-20T14:55:24;27.20;72.30
33139;DHT22;19501;50.948;5.316;2023-07-20T14:57:50;26.60;75.80
33139;DHT22;19501;50.948;5.316;2023-07-20T15:00:16;26.30;73.40
33139;DHT22;19501;50.948;5.316;2023-07-20T15:02:42;25.90;73.90
33139;DHT22;19501;50.948;5.316;2023-07-20T15:05:10;25.90;75.80
33139;DHT22;19501;50.948;5.316;2023-07-20T15:07:36;25.70;76.50
33139;DHT22;19501;50.948;5.316;2023-07-20T15:10:05;25.80;79.80
33139;DHT22;19501;50.948;5.316;2023-07-20T15:12:31;25.60;78.90
33139;DHT22;19501;50.948;5.316;2023-07-20T15:15:15;25.10;80.50
33139;DHT22;19501;50.948;5.316;2023-07-20T15:17:43;25.20;78.90
33139;DHT22;19501;50.948;5.316;2023-07-20T15:20:11;24.80;78.90
33139;DHT22;19501;50.948;5.316;2023-07-20T15:22:37;24.70;82.60
33139;DHT22;19501;50.948;5.316;2023-07-20T15:25:05;24.70;83.40
33139;DHT22;19501;50.948;5.316;2023-07-20T15:27:32;24.60;84.90
33139;DHT22;19501;50.948;5.316;2023-07-20T15:29:58;24.50;86.30
33139;DHT22;19501;50.948;5.316;2023-07-20T15:32:23;24.60;85.30
33139;DHT22;19501;50.948;5.316;2023-07-20T15:34:49;24.90;85.70
33139;DHT22;19501;50.948;5.316;2023-07-20T15:37:15;25.10;85.40
33139;DHT22;19501;50.948;5.316;2023-07-20T15:39:40;25.10;85.30
33139;DHT22;19501;50.948;5.316;2023-07-20T15:42:07;25.30;85.00
33139;DHT22;19501;50.948;5.316;2023-07-20T15:44:33;25.00;85.40
33139;DHT22;19501;50.948;5.316;2023-07-20T15:47:00;25.00;85.60
33139;DHT22;19501;50.948;5.316;2023-07-20T15:49:29;25.00;86.80